sensor_id;sensor_type;location;lat;lon;timestamp;P1;durP1;ratioP1;P2;durP2;ratioP2
44766;SDS011;30487;48.716;9.272;2023-08-06T00:02:24;10.93;;;6.00;;
44766;SDS011;30487;48.716;9.272;2023-08-06T00:04:49;9.38;;;5.82;;
44766;SDS011;30487;48.716;9.272;2023-08-06T00:07:15;8.55;;;5.65;;
44766;SDS011;30487;48.716;9.272;2023-08-06T00:09:40;8.70;;;5.25;;
44766;SDS011;30487;48.716;9.272;2023-08-06T00:12:06;8.35;;;4.80;;
44766;SDS011;30487;48.716;9.272;2023-08-06T00:14:32;8.65;;;5.50;;
44766;SDS011;30487;48.716;9.272;2023-08-06T00:16:57;10.02;;;4.85;;
44766;SDS011;30487;48.716;9.272;2023-08-06T00:19:23;7.75;;;4.70;;
44766;SDS011;30487;48.716;9.272;2023-08-06T00:21:48;7.43;;;4.70;;
44766;SDS011;30487;48.716;9.272;2023-08-06T00:24:14;5.82;;;3.90;;
44766;SDS011;30487;48.716;9.272;2023-08-06T00:26:39;7.10;;;4.63;;
44766;SDS011;30487;48.716;9.272;2023-08-06T00:29:05;6.63;;;4.30;;
44766;SDS011;30487;48.716;9.272;2023-08-06T00:31:30;6.53;;;4.10;;
44766;SDS011;30487;48.716;9.272;2023-08-06T00:33:56;6.55;;;4.43;;
44766;SDS011;30487;48.716;9.272;2023-08-06T00:36:21;9.05;;;5.15;;
44766;SDS011;30487;48.716;9.272;2023-08-06T00:38:47;9.30;;;4.28;;
44766;SDS011;30487;48.716;9.272;2023-08-06T00:41:12;6.70;;;4.05;;
44766;SDS011;30487;48.716;9.272;2023-08-06T00:43:38;9.20;;;5.00;;
44766;SDS011;30487;48.716;9.272;2023-08-06T00:46:04;8.32;;;4.55;;
44766;SDS011;30487;48.716;9.272;2023-08-06T00:48:30;8.10;;;4.65;;
44766;SDS011;30487;48.716;9.272;2023-08-06T00:50:56;7.50;;;4.53;;
44766;SDS011;30487;48.716;9.272;2023-08-06T00:53:21;7.07;;;4.70;;
44766;SDS011;30487;48.716;9.272;2023-08-06T00:55:47;8.70;;;4.95;;
44766;SDS011;30487;48.716;9.272;2023-08-06T00:58:13;7.70;;;4.35;;
44766;SDS011;30487;48.716;9.272;2023-08-06T01:00:41;7.85;;;5.38;;
44766;SDS011;30487;48.716;9.272;2023-08-06T01:03:06;8.18;;;5.43;;
44766;SDS011;30487;48.716;9.272;2023-08-06T01:05:32;8.07;;;4.47;;
44766;SDS011;30487;48.716;9.272;2023-08-06T01:16:03;8.45;;;4.28;;
44766;SDS011;30487;48.716;9.272;2023-08-06T01:18:30;6.85;;;4.20;;
44766;SDS011;30487;48.716;9.272;2023-08-06T01:20:56;6.95;;;4.03;;
44766;SDS011;30487;48.716;9.272;2023-08-06T01:23:22;6.30;;;3.85;;
44766;SDS011;30487;48.716;9.272;2023-08-06T01:25:53;7.57;;;4.30;;
44766;SDS011;30487;48.716;9.272;2023-08-06T01:31:05;7.50;;;4.00;;
44766;SDS011;30487;48.716;9.272;2023-08-06T01:33:37;6.47;;;3.72;;
44766;SDS011;30487;48.716;9.272;2023-08-06T01:36:10;6.22;;;3.97;;
44766;SDS011;30487;48.716;9.272;2023-08-06T01:38:36;6.63;;;4.07;;
44766;SDS011;30487;48.716;9.272;2023-08-06T01:41:01;5.93;;;3.65;;
44766;SDS011;30487;48.716;9.272;2023-08-06T01:43:27;5.80;;;3.67;;
44766;SDS011;30487;48.716;9.272;2023-08-06T01:45:52;6.97;;;3.55;;
44766;SDS011;30487;48.716;9.272;2023-08-06T01:48:18;5.38;;;3.55;;
44766;SDS011;30487;48.716;9.272;2023-08-06T01:50:43;6.97;;;3.67;;
44766;SDS011;30487;48.716;9.272;2023-08-06T01:53:09;6.85;;;3.45;;
44766;SDS011;30487;48.716;9.272;2023-08-06T01:55:34;5.30;;;2.97;;
44766;SDS011;30487;48.716;9.272;2023-08-06T01:58:00;5.75;;;3.28;;
44766;SDS011;30487;48.716;9.272;2023-08-06T02:00:26;5.55;;;3.13;;
44766;SDS011;30487;48.716;9.272;2023-08-06T02:02:52;5.40;;;2.67;;
44766;SDS011;30487;48.716;9.272;2023-08-06T02:05:18;4.10;;;2.75;;
44766;SDS011;30487;48.716;9.272;2023-08-06T02:07:44;4.05;;;2.50;;
44766;SDS011;30487;48.716;9.272;2023-08-06T02:10:09;2.45;;;1.90;;
44766;SDS011;30487;48.716;9.272;2023-08-06T02:12:35;4.15;;;2.15;;
44766;SDS011;30487;48.716;9.272;2023-08-06T02:15:00;3.65;;;2.13;;
44766;SDS011;30487;48.716;9.272;2023-08-06T02:17:26;3.70;;;2.20;;
44766;SDS011;30487;48.716;9.272;2023-08-06T02:19:51;4.28;;;2.10;;
44766;SDS011;30487;48.716;9.272;2023-08-06T02:22:17;5.10;;;2.40;;
44766;SDS011;30487;48.716;9.272;2023-08-06T02:24:42;3.53;;;2.15;;
44766;SDS011;30487;48.716;9.272;2023-08-06T02:27:08;3.00;;;2.00;;
44766;SDS011;30487;48.716;9.272;2023-08-06T02:29:33;4.93;;;2.08;;
44766;SDS011;30487;48.716;9.272;2023-08-06T02:31:59;3.97;;;2.13;;
44766;SDS011;30487;48.716;9.272;2023-08-06T02:34:27;3.22;;;2.13;;
44766;SDS011;30487;48.716;9.272;2023-08-06T02:36:52;4.45;;;1.95;;
44766;SDS011;30487;48.716;9.272;2023-08-06T02:39:18;2.72;;;1.88;;
44766;SDS011;30487;48.716;9.272;2023-08-06T02:41:44;2.97;;;1.90;;
44766;SDS011;30487;48.716;9.272;2023-08-06T02:44:09;3.88;;;2.10;;
44766;SDS011;30487;48.716;9.272;2023-08-06T02:46:35;5.43;;;1.92;;
44766;SDS011;30487;48.716;9.272;2023-08-06T02:49:00;4.60;;;2.08;;
44766;SDS011;30487;48.716;9.272;2023-08-06T02:51:26;5.10;;;2.00;;
44766;SDS011;30487;48.716;9.272;2023-08-06T02:53:51;4.25;;;1.80;;
44766;SDS011;30487;48.716;9.272;2023-08-06T02:56:17;3.70;;;1.60;;
44766;SDS011;30487;48.716;9.272;2023-08-06T02:58:42;4.90;;;2.08;;
44766;SDS011;30487;48.716;9.272;2023-08-06T03:01:08;3.25;;;1.85;;
44766;SDS011;30487;48.716;9.272;2023-08-06T03:03:34;3.03;;;1.67;;
44766;SDS011;30487;48.716;9.272;2023-08-06T03:05:59;2.70;;;1.60;;
44766;SDS011;30487;48.716;9.272;2023-08-06T03:08:25;4.45;;;1.67;;
44766;SDS011;30487;48.716;9.272;2023-08-06T03:10:51;5.72;;;1.90;;
44766;SDS011;30487;48.716;9.272;2023-08-06T03:13:17;3.40;;;1.75;;
44766;SDS011;30487;48.716;9.272;2023-08-06T03:15:43;3.08;;;1.70;;
44766;SDS011;30487;48.716;9.272;2023-08-06T03:20:42;3.38;;;1.92;;
44766;SDS011;30487;48.716;9.272;2023-08-06T03:23:08;2.92;;;1.83;;
44766;SDS011;30487;48.716;9.272;2023-08-06T03:25:35;3.20;;;1.60;;
44766;SDS011;30487;48.716;9.272;2023-08-06T03:28:01;3.35;;;1.80;;
44766;SDS011;30487;48.716;9.272;2023-08-06T03:30:27;2.50;;;1.50;;
44766;SDS011;30487;48.716;9.272;2023-08-06T03:32:52;3.75;;;1.75;;
44766;SDS011;30487;48.716;9.272;2023-08-06T03:35:18;3.50;;;1.70;;
44766;SDS011;30487;48.716;9.272;2023-08-06T03:37:44;2.55;;;1.40;;
44766;SDS011;30487;48.716;9.272;2023-08-06T03:40:09;5.68;;;1.80;;
44766;SDS011;30487;48.716;9.272;2023-08-06T03:42:35;2.85;;;1.50;;
44766;SDS011;30487;48.716;9.272;2023-08-06T03:45:01;3.92;;;1.65;;
44766;SDS011;30487;48.716;9.272;2023-08-06T03:47:26;4.10;;;1.75;;
44766;SDS011;30487;48.716;9.272;2023-08-06T03:49:52;2.83;;;1.60;;
44766;SDS011;30487;48.716;9.272;2023-08-06T03:52:17;4.63;;;1.80;;
44766;SDS011;30487;48.716;9.272;2023-08-06T03:54:43;5.05;;;1.83;;
44766;SDS011;30487;48.716;9.272;2023-08-06T03:57:09;3.53;;;1.70;;
44766;SDS011;30487;48.716;9.272;2023-08-06T03:59:35;2.45;;;1.50;;
44766;SDS011;30487;48.716;9.272;2023-08-06T04:02:01;4.78;;;1.77;;
44766;SDS011;30487;48.716;9.272;2023-08-06T04:04:26;5.20;;;1.75;;
44766;SDS011;30487;48.716;9.272;2023-08-06T04:06:52;3.03;;;1.77;;
44766;SDS011;30487;48.716;9.272;2023-08-06T04:09:17;3.20;;;1.40;;
44766;SDS011;30487;48.716;9.272;2023-08-06T04:11:43;3.00;;;1.50;;
44766;SDS011;30487;48.716;9.272;2023-08-06T04:14:08;3.38;;;1.27;;
44766;SDS011;30487;48.716;9.272;2023-08-06T04:16:34;5.53;;;1.70;;
44766;SDS011;30487;48.716;9.272;2023-08-06T04:18:59;3.85;;;1.60;;
44766;SDS011;30487;48.716;9.272;2023-08-06T04:21:25;2.35;;;1.20;;
44766;SDS011;30487;48.716;9.272;2023-08-06T04:23:50;2.67;;;1.45;;
44766;SDS011;30487;48.716;9.272;2023-08-06T04:26:16;2.28;;;1.48;;
44766;SDS011;30487;48.716;9.272;2023-08-06T04:28:41;4.55;;;1.52;;
44766;SDS011;30487;48.716;9.272;2023-08-06T04:31:07;2.90;;;1.48;;
44766;SDS011;30487;48.716;9.272;2023-08-06T04:33:33;3.88;;;1.33;;
44766;SDS011;30487;48.716;9.272;2023-08-06T04:35:59;3.08;;;1.52;;
44766;SDS011;30487;48.716;9.272;2023-08-06T04:38:25;3.20;;;1.40;;
44766;SDS011;30487;48.716;9.272;2023-08-06T04:40:51;3.70;;;1.40;;
44766;SDS011;30487;48.716;9.272;2023-08-06T04:43:16;4.28;;;1.40;;
44766;SDS011;30487;48.716;9.272;2023-08-06T04:45:46;2.17;;;1.10;;
44766;SDS011;30487;48.716;9.272;2023-08-06T04:48:12;3.40;;;1.27;;
44766;SDS011;30487;48.716;9.272;2023-08-06T04:50:38;1.98;;;1.10;;
44766;SDS011;30487;48.716;9.272;2023-08-06T04:53:03;2.72;;;1.23;;
44766;SDS011;30487;48.716;9.272;2023-08-06T04:55:29;3.08;;;1.10;;
44766;SDS011;30487;48.716;9.272;2023-08-06T04:57:54;5.13;;;1.40;;
44766;SDS011;30487;48.716;9.272;2023-08-06T05:00:20;3.90;;;1.13;;
44766;SDS011;30487;48.716;9.272;2023-08-06T05:02:45;2.55;;;1.13;;
44766;SDS011;30487;48.716;9.272;2023-08-06T05:05:11;3.30;;;1.20;;
44766;SDS011;30487;48.716;9.272;2023-08-06T05:07:36;4.38;;;1.45;;
44766;SDS011;30487;48.716;9.272;2023-08-06T05:10:02;2.63;;;1.00;;
44766;SDS011;30487;48.716;9.272;2023-08-06T05:12:29;2.92;;;0.90;;
44766;SDS011;30487;48.716;9.272;2023-08-06T05:14:55;4.75;;;0.82;;
44766;SDS011;30487;48.716;9.272;2023-08-06T05:17:20;4.50;;;0.93;;
44766;SDS011;30487;48.716;9.272;2023-08-06T05:19:47;2.83;;;1.35;;
44766;SDS011;30487;48.716;9.272;2023-08-06T05:22:13;1.98;;;0.70;;
44766;SDS011;30487;48.716;9.272;2023-08-06T05:24:38;3.78;;;1.05;;
44766;SDS011;30487;48.716;9.272;2023-08-06T05:27:04;2.42;;;0.80;;
44766;SDS011;30487;48.716;9.272;2023-08-06T05:29:30;4.07;;;0.88;;
44766;SDS011;30487;48.716;9.272;2023-08-06T05:31:56;2.88;;;0.75;;
44766;SDS011;30487;48.716;9.272;2023-08-06T05:34:21;4.90;;;0.80;;
44766;SDS011;30487;48.716;9.272;2023-08-06T05:36:47;1.75;;;0.80;;
44766;SDS011;30487;48.716;9.272;2023-08-06T05:39:12;3.75;;;0.80;;
44766;SDS011;30487;48.716;9.272;2023-08-06T05:41:38;1.98;;;0.90;;
44766;SDS011;30487;48.716;9.272;2023-08-06T05:44:03;2.25;;;0.82;;
44766;SDS011;30487;48.716;9.272;2023-08-06T05:46:29;2.35;;;0.70;;
44766;SDS011;30487;48.716;9.272;2023-08-06T05:48:55;2.97;;;0.90;;
44766;SDS011;30487;48.716;9.272;2023-08-06T05:51:20;2.65;;;0.80;;
44766;SDS011;30487;48.716;9.272;2023-08-06T05:53:46;1.85;;;0.68;;
44766;SDS011;30487;48.716;9.272;2023-08-06T05:56:12;1.90;;;0.65;;
44766;SDS011;30487;48.716;9.272;2023-08-06T05:58:37;2.75;;;0.80;;
44766;SDS011;30487;48.716;9.272;2023-08-06T06:01:03;1.10;;;0.60;;
44766;SDS011;30487;48.716;9.272;2023-08-06T06:03:28;1.38;;;0.60;;
44766;SDS011;30487;48.716;9.272;2023-08-06T06:05:54;5.18;;;0.70;;
44766;SDS011;30487;48.716;9.272;2023-08-06T06:08:19;2.80;;;0.70;;
44766;SDS011;30487;48.716;9.272;2023-08-06T06:10:45;4.15;;;0.85;;
44766;SDS011;30487;48.716;9.272;2023-08-06T06:13:11;2.47;;;0.55;;
44766;SDS011;30487;48.716;9.272;2023-08-06T06:15:36;3.83;;;0.90;;
44766;SDS011;30487;48.716;9.272;2023-08-06T06:18:03;1.75;;;0.70;;
44766;SDS011;30487;48.716;9.272;2023-08-06T06:20:28;1.88;;;0.60;;
44766;SDS011;30487;48.716;9.272;2023-08-06T06:22:54;1.88;;;0.55;;
44766;SDS011;30487;48.716;9.272;2023-08-06T06:25:19;3.90;;;0.70;;
44766;SDS011;30487;48.716;9.272;2023-08-06T06:27:45;2.67;;;0.70;;
44766;SDS011;30487;48.716;9.272;2023-08-06T06:30:10;2.85;;;0.50;;
44766;SDS011;30487;48.716;9.272;2023-08-06T06:32:37;1.77;;;0.55;;
44766;SDS011;30487;48.716;9.272;2023-08-06T06:35:02;1.08;;;0.50;;
44766;SDS011;30487;48.716;9.272;2023-08-06T06:37:28;1.10;;;0.60;;
44766;SDS011;30487;48.716;9.272;2023-08-06T06:39:54;0.95;;;0.50;;
44766;SDS011;30487;48.716;9.272;2023-08-06T06:42:19;2.03;;;0.68;;
44766;SDS011;30487;48.716;9.272;2023-08-06T06:44:45;1.77;;;0.40;;
44766;SDS011;30487;48.716;9.272;2023-08-06T06:47:11;1.98;;;0.55;;
44766;SDS011;30487;48.716;9.272;2023-08-06T06:49:36;1.25;;;0.52;;
44766;SDS011;30487;48.716;9.272;2023-08-06T06:52:02;1.58;;;0.52;;
44766;SDS011;30487;48.716;9.272;2023-08-06T06:54:27;4.55;;;0.60;;
44766;SDS011;30487;48.716;9.272;2023-08-06T06:56:53;2.20;;;0.60;;
44766;SDS011;30487;48.716;9.272;2023-08-06T06:59:19;1.65;;;0.70;;
44766;SDS011;30487;48.716;9.272;2023-08-06T07:01:44;0.88;;;0.50;;
44766;SDS011;30487;48.716;9.272;2023-08-06T07:04:10;1.42;;;0.60;;
44766;SDS011;30487;48.716;9.272;2023-08-06T07:06:35;1.77;;;0.60;;
44766;SDS011;30487;48.716;9.272;2023-08-06T07:09:01;1.88;;;0.40;;
44766;SDS011;30487;48.716;9.272;2023-08-06T07:11:26;2.22;;;0.57;;
44766;SDS011;30487;48.716;9.272;2023-08-06T07:13:56;0.82;;;0.40;;
44766;SDS011;30487;48.716;9.272;2023-08-06T07:16:25;1.55;;;0.60;;
44766;SDS011;30487;48.716;9.272;2023-08-06T07:18:51;1.30;;;0.40;;
44766;SDS011;30487;48.716;9.272;2023-08-06T07:21:19;1.90;;;0.40;;
44766;SDS011;30487;48.716;9.272;2023-08-06T07:23:45;3.30;;;0.50;;
44766;SDS011;30487;48.716;9.272;2023-08-06T07:26:11;3.42;;;0.47;;
44766;SDS011;30487;48.716;9.272;2023-08-06T07:28:36;0.70;;;0.30;;
44766;SDS011;30487;48.716;9.272;2023-08-06T07:31:03;0.82;;;0.40;;
44766;SDS011;30487;48.716;9.272;2023-08-06T07:33:29;0.88;;;0.30;;
44766;SDS011;30487;48.716;9.272;2023-08-06T07:35:54;1.35;;;0.40;;
44766;SDS011;30487;48.716;9.272;2023-08-06T07:38:20;1.20;;;0.40;;
44766;SDS011;30487;48.716;9.272;2023-08-06T07:40:46;1.55;;;0.40;;
44766;SDS011;30487;48.716;9.272;2023-08-06T07:43:11;0.50;;;0.30;;
44766;SDS011;30487;48.716;9.272;2023-08-06T07:45:37;0.75;;;0.30;;
44766;SDS011;30487;48.716;9.272;2023-08-06T07:48:03;1.88;;;0.30;;
44766;SDS011;30487;48.716;9.272;2023-08-06T07:50:29;0.35;;;0.30;;
44766;SDS011;30487;48.716;9.272;2023-08-06T07:52:55;0.57;;;0.30;;
44766;SDS011;30487;48.716;9.272;2023-08-06T07:55:20;0.57;;;0.28;;
44766;SDS011;30487;48.716;9.272;2023-08-06T07:57:46;0.22;;;0.22;;
44766;SDS011;30487;48.716;9.272;2023-08-06T08:00:11;0.93;;;0.30;;
44766;SDS011;30487;48.716;9.272;2023-08-06T08:02:37;0.50;;;0.30;;
44766;SDS011;30487;48.716;9.272;2023-08-06T08:05:03;0.20;;;0.20;;
44766;SDS011;30487;48.716;9.272;2023-08-06T08:07:28;0.70;;;0.25;;
44766;SDS011;30487;48.716;9.272;2023-08-06T08:09:55;1.15;;;0.40;;
44766;SDS011;30487;48.716;9.272;2023-08-06T08:12:21;0.38;;;0.30;;
44766;SDS011;30487;48.716;9.272;2023-08-06T08:14:47;0.70;;;0.30;;
44766;SDS011;30487;48.716;9.272;2023-08-06T08:17:13;1.05;;;0.30;;
44766;SDS011;30487;48.716;9.272;2023-08-06T08:19:39;0.68;;;0.30;;
44766;SDS011;30487;48.716;9.272;2023-08-06T08:22:06;0.30;;;0.20;;
44766;SDS011;30487;48.716;9.272;2023-08-06T08:24:31;2.45;;;0.30;;
44766;SDS011;30487;48.716;9.272;2023-08-06T08:26:57;0.40;;;0.28;;
44766;SDS011;30487;48.716;9.272;2023-08-06T08:29:23;2.13;;;0.28;;
44766;SDS011;30487;48.716;9.272;2023-08-06T08:31:48;1.75;;;0.38;;
44766;SDS011;30487;48.716;9.272;2023-08-06T08:34:15;0.70;;;0.40;;
44766;SDS011;30487;48.716;9.272;2023-08-06T08:36:41;1.75;;;0.20;;
44766;SDS011;30487;48.716;9.272;2023-08-06T08:39:07;0.50;;;0.20;;
44766;SDS011;30487;48.716;9.272;2023-08-06T08:41:33;0.28;;;0.20;;
44766;SDS011;30487;48.716;9.272;2023-08-06T08:43:59;0.52;;;0.20;;
44766;SDS011;30487;48.716;9.272;2023-08-06T08:46:29;0.25;;;0.20;;
44766;SDS011;30487;48.716;9.272;2023-08-06T08:48:57;0.30;;;0.20;;
44766;SDS011;30487;48.716;9.272;2023-08-06T08:51:24;1.10;;;0.20;;
44766;SDS011;30487;48.716;9.272;2023-08-06T08:53:52;0.85;;;0.22;;
44766;SDS011;30487;48.716;9.272;2023-08-06T08:56:22;0.43;;;0.20;;
44766;SDS011;30487;48.716;9.272;2023-08-06T08:58:48;0.30;;;0.30;;
44766;SDS011;30487;48.716;9.272;2023-08-06T09:01:15;0.28;;;0.20;;
44766;SDS011;30487;48.716;9.272;2023-08-06T09:03:41;0.95;;;0.30;;
44766;SDS011;30487;48.716;9.272;2023-08-06T09:06:08;0.68;;;0.20;;
44766;SDS011;30487;48.716;9.272;2023-08-06T09:08:37;0.40;;;0.30;;
44766;SDS011;30487;48.716;9.272;2023-08-06T09:11:08;0.20;;;0.20;;
44766;SDS011;30487;48.716;9.272;2023-08-06T09:13:38;0.55;;;0.30;;
44766;SDS011;30487;48.716;9.272;2023-08-06T09:16:04;0.30;;;0.20;;
44766;SDS011;30487;48.716;9.272;2023-08-06T09:18:30;0.45;;;0.30;;
44766;SDS011;30487;48.716;9.272;2023-08-06T09:20:56;0.30;;;0.20;;
44766;SDS011;30487;48.716;9.272;2023-08-06T09:23:29;0.30;;;0.20;;
44766;SDS011;30487;48.716;9.272;2023-08-06T09:25:55;1.13;;;0.40;;
44766;SDS011;30487;48.716;9.272;2023-08-06T09:28:22;0.35;;;0.28;;
44766;SDS011;30487;48.716;9.272;2023-08-06T09:30:49;0.20;;;0.20;;
44766;SDS011;30487;48.716;9.272;2023-08-06T09:33:18;0.28;;;0.22;;
44766;SDS011;30487;48.716;9.272;2023-08-06T09:35:45;0.20;;;0.20;;
44766;SDS011;30487;48.716;9.272;2023-08-06T09:38:12;0.60;;;0.20;;
44766;SDS011;30487;48.716;9.272;2023-08-06T09:40:38;0.57;;;0.30;;
44766;SDS011;30487;48.716;9.272;2023-08-06T09:43:04;0.77;;;0.40;;
44766;SDS011;30487;48.716;9.272;2023-08-06T09:45:34;0.20;;;0.20;;
44766;SDS011;30487;48.716;9.272;2023-08-06T09:48:07;0.30;;;0.30;;
44766;SDS011;30487;48.716;9.272;2023-08-06T09:50:37;0.68;;;0.32;;
44766;SDS011;30487;48.716;9.272;2023-08-06T09:53:04;0.45;;;0.20;;
44766;SDS011;30487;48.716;9.272;2023-08-06T09:55:30;0.22;;;0.22;;
44766;SDS011;30487;48.716;9.272;2023-08-06T09:57:58;0.43;;;0.22;;
44766;SDS011;30487;48.716;9.272;2023-08-06T10:00:24;0.30;;;0.30;;
44766;SDS011;30487;48.716;9.272;2023-08-06T10:02:51;1.10;;;0.30;;
44766;SDS011;30487;48.716;9.272;2023-08-06T10:05:19;0.20;;;0.20;;
44766;SDS011;30487;48.716;9.272;2023-08-06T10:07:45;1.20;;;0.20;;
44766;SDS011;30487;48.716;9.272;2023-08-06T10:10:12;0.47;;;0.30;;
44766;SDS011;30487;48.716;9.272;2023-08-06T10:12:43;0.30;;;0.20;;
44766;SDS011;30487;48.716;9.272;2023-08-06T10:17:39;0.47;;;0.20;;
44766;SDS011;30487;48.716;9.272;2023-08-06T10:20:07;1.30;;;0.30;;
44766;SDS011;30487;48.716;9.272;2023-08-06T10:22:34;0.80;;;0.20;;
44766;SDS011;30487;48.716;9.272;2023-08-06T10:25:01;0.63;;;0.30;;
44766;SDS011;30487;48.716;9.272;2023-08-06T10:27:33;0.43;;;0.30;;
44766;SDS011;30487;48.716;9.272;2023-08-06T10:30:24;0.32;;;0.28;;
44766;SDS011;30487;48.716;9.272;2023-08-06T10:33:01;0.30;;;0.30;;
44766;SDS011;30487;48.716;9.272;2023-08-06T10:40:39;0.40;;;0.20;;
44766;SDS011;30487;48.716;9.272;2023-08-06T10:43:06;0.30;;;0.30;;
44766;SDS011;30487;48.716;9.272;2023-08-06T10:45:34;0.52;;;0.20;;
44766;SDS011;30487;48.716;9.272;2023-08-06T10:48:00;0.60;;;0.30;;
44766;SDS011;30487;48.716;9.272;2023-08-06T10:50:26;0.88;;;0.30;;
44766;SDS011;30487;48.716;9.272;2023-08-06T10:52:51;0.20;;;0.20;;
44766;SDS011;30487;48.716;9.272;2023-08-06T10:55:28;0.20;;;0.20;;
44766;SDS011;30487;48.716;9.272;2023-08-06T10:57:54;0.85;;;0.30;;
44766;SDS011;30487;48.716;9.272;2023-08-06T11:00:21;0.60;;;0.30;;
44766;SDS011;30487;48.716;9.272;2023-08-06T11:02:48;0.47;;;0.30;;
44766;SDS011;30487;48.716;9.272;2023-08-06T11:05:15;0.68;;;0.30;;
44766;SDS011;30487;48.716;9.272;2023-08-06T11:07:41;0.40;;;0.30;;
44766;SDS011;30487;48.716;9.272;2023-08-06T11:10:08;0.30;;;0.30;;
44766;SDS011;30487;48.716;9.272;2023-08-06T11:12:36;0.38;;;0.30;;
44766;SDS011;30487;48.716;9.272;2023-08-06T11:15:03;0.40;;;0.25;;
44766;SDS011;30487;48.716;9.272;2023-08-06T11:17:29;0.35;;;0.20;;
44766;SDS011;30487;48.716;9.272;2023-08-06T11:19:58;0.55;;;0.20;;
44766;SDS011;30487;48.716;9.272;2023-08-06T11:22:24;0.30;;;0.30;;
44766;SDS011;30487;48.716;9.272;2023-08-06T11:24:50;0.20;;;0.20;;
44766;SDS011;30487;48.716;9.272;2023-08-06T11:27:16;2.95;;;0.30;;
44766;SDS011;30487;48.716;9.272;2023-08-06T11:29:42;0.35;;;0.30;;
44766;SDS011;30487;48.716;9.272;2023-08-06T11:32:09;0.20;;;0.20;;
44766;SDS011;30487;48.716;9.272;2023-08-06T11:34:35;0.90;;;0.30;;
44766;SDS011;30487;48.716;9.272;2023-08-06T11:37:05;0.75;;;0.30;;
44766;SDS011;30487;48.716;9.272;2023-08-06T11:39:34;0.65;;;0.35;;
44766;SDS011;30487;48.716;9.272;2023-08-06T11:42:05;0.57;;;0.40;;
44766;SDS011;30487;48.716;9.272;2023-08-06T11:44:32;2.38;;;0.38;;
44766;SDS011;30487;48.716;9.272;2023-08-06T11:47:01;0.40;;;0.30;;
44766;SDS011;30487;48.716;9.272;2023-08-06T11:49:41;1.00;;;0.40;;
44766;SDS011;30487;48.716;9.272;2023-08-06T11:52:18;1.25;;;0.50;;
44766;SDS011;30487;48.716;9.272;2023-08-06T11:57:24;1.65;;;0.50;;
44766;SDS011;30487;48.716;9.272;2023-08-06T11:59:50;0.70;;;0.35;;
44766;SDS011;30487;48.716;9.272;2023-08-06T12:02:15;2.40;;;0.50;;
44766;SDS011;30487;48.716;9.272;2023-08-06T12:05:00;2.15;;;0.50;;
44766;SDS011;30487;48.716;9.272;2023-08-06T12:07:29;0.65;;;0.50;;
44766;SDS011;30487;48.716;9.272;2023-08-06T12:10:01;1.40;;;0.68;;
44766;SDS011;30487;48.716;9.272;2023-08-06T12:12:27;1.30;;;0.60;;
44766;SDS011;30487;48.716;9.272;2023-08-06T12:14:53;1.17;;;0.55;;
44766;SDS011;30487;48.716;9.272;2023-08-06T12:17:19;1.23;;;0.50;;
44766;SDS011;30487;48.716;9.272;2023-08-06T12:19:45;1.33;;;0.50;;
44766;SDS011;30487;48.716;9.272;2023-08-06T12:22:14;1.13;;;0.60;;
44766;SDS011;30487;48.716;9.272;2023-08-06T12:24:43;0.93;;;0.40;;
44766;SDS011;30487;48.716;9.272;2023-08-06T12:27:09;0.80;;;0.50;;
44766;SDS011;30487;48.716;9.272;2023-08-06T12:29:35;0.70;;;0.40;;
44766;SDS011;30487;48.716;9.272;2023-08-06T12:32:13;0.47;;;0.38;;
44766;SDS011;30487;48.716;9.272;2023-08-06T12:34:39;0.98;;;0.60;;
44766;SDS011;30487;48.716;9.272;2023-08-06T12:37:08;0.98;;;0.50;;
44766;SDS011;30487;48.716;9.272;2023-08-06T12:39:34;0.57;;;0.43;;
44766;SDS011;30487;48.716;9.272;2023-08-06T12:42:01;0.80;;;0.50;;
44766;SDS011;30487;48.716;9.272;2023-08-06T12:44:27;0.70;;;0.52;;
44766;SDS011;30487;48.716;9.272;2023-08-06T12:46:52;1.08;;;0.50;;
44766;SDS011;30487;48.716;9.272;2023-08-06T12:49:18;0.85;;;0.50;;
44766;SDS011;30487;48.716;9.272;2023-08-06T12:51:46;2.05;;;0.60;;
44766;SDS011;30487;48.716;9.272;2023-08-06T12:54:12;1.42;;;0.50;;
44766;SDS011;30487;48.716;9.272;2023-08-06T12:56:37;0.90;;;0.47;;
44766;SDS011;30487;48.716;9.272;2023-08-06T12:59:03;3.08;;;0.50;;
44766;SDS011;30487;48.716;9.272;2023-08-06T13:01:28;1.27;;;0.40;;
44766;SDS011;30487;48.716;9.272;2023-08-06T13:03:54;2.90;;;0.50;;
44766;SDS011;30487;48.716;9.272;2023-08-06T13:06:19;0.70;;;0.45;;
44766;SDS011;30487;48.716;9.272;2023-08-06T13:08:45;0.77;;;0.40;;
44766;SDS011;30487;48.716;9.272;2023-08-06T13:11:10;2.70;;;0.50;;
44766;SDS011;30487;48.716;9.272;2023-08-06T13:13:36;1.13;;;0.50;;
44766;SDS011;30487;48.716;9.272;2023-08-06T13:16:01;0.90;;;0.52;;
44766;SDS011;30487;48.716;9.272;2023-08-06T13:18:27;2.65;;;0.65;;
44766;SDS011;30487;48.716;9.272;2023-08-06T13:20:54;1.67;;;0.63;;
44766;SDS011;30487;48.716;9.272;2023-08-06T13:23:20;1.73;;;0.60;;
44766;SDS011;30487;48.716;9.272;2023-08-06T13:25:46;0.95;;;0.50;;
44766;SDS011;30487;48.716;9.272;2023-08-06T13:28:11;1.42;;;0.60;;
44766;SDS011;30487;48.716;9.272;2023-08-06T13:30:38;0.98;;;0.60;;
44766;SDS011;30487;48.716;9.272;2023-08-06T13:33:07;1.05;;;0.55;;
44766;SDS011;30487;48.716;9.272;2023-08-06T13:35:33;3.55;;;0.60;;
44766;SDS011;30487;48.716;9.272;2023-08-06T13:37:59;1.00;;;0.50;;
44766;SDS011;30487;48.716;9.272;2023-08-06T13:40:27;2.38;;;0.60;;
44766;SDS011;30487;48.716;9.272;2023-08-06T13:42:53;3.65;;;0.73;;
44766;SDS011;30487;48.716;9.272;2023-08-06T13:45:19;0.90;;;0.60;;
44766;SDS011;30487;48.716;9.272;2023-08-06T13:47:45;1.30;;;0.52;;
44766;SDS011;30487;48.716;9.272;2023-08-06T13:50:10;1.02;;;0.50;;
44766;SDS011;30487;48.716;9.272;2023-08-06T13:52:36;1.02;;;0.47;;
44766;SDS011;30487;48.716;9.272;2023-08-06T13:55:01;0.80;;;0.50;;
44766;SDS011;30487;48.716;9.272;2023-08-06T13:57:28;2.58;;;0.40;;
44766;SDS011;30487;48.716;9.272;2023-08-06T13:59:54;0.30;;;0.30;;
44766;SDS011;30487;48.716;9.272;2023-08-06T14:02:20;0.50;;;0.40;;
44766;SDS011;30487;48.716;9.272;2023-08-06T14:04:45;0.63;;;0.43;;
44766;SDS011;30487;48.716;9.272;2023-08-06T14:07:11;1.35;;;0.50;;
44766;SDS011;30487;48.716;9.272;2023-08-06T14:09:36;0.98;;;0.30;;
44766;SDS011;30487;48.716;9.272;2023-08-06T14:12:02;0.40;;;0.40;;
44766;SDS011;30487;48.716;9.272;2023-08-06T14:14:28;0.85;;;0.40;;
44766;SDS011;30487;48.716;9.272;2023-08-06T14:16:53;0.98;;;0.40;;
44766;SDS011;30487;48.716;9.272;2023-08-06T14:19:19;1.17;;;0.50;;
44766;SDS011;30487;48.716;9.272;2023-08-06T14:21:45;1.05;;;0.50;;
44766;SDS011;30487;48.716;9.272;2023-08-06T14:24:11;1.27;;;0.40;;
44766;SDS011;30487;48.716;9.272;2023-08-06T14:26:37;0.95;;;0.40;;
44766;SDS011;30487;48.716;9.272;2023-08-06T14:29:02;2.05;;;0.50;;
44766;SDS011;30487;48.716;9.272;2023-08-06T14:31:28;1.67;;;0.57;;
44766;SDS011;30487;48.716;9.272;2023-08-06T14:33:54;1.10;;;0.60;;
44766;SDS011;30487;48.716;9.272;2023-08-06T14:36:19;0.68;;;0.40;;
44766;SDS011;30487;48.716;9.272;2023-08-06T14:38:45;3.40;;;0.60;;
44766;SDS011;30487;48.716;9.272;2023-08-06T14:41:11;1.90;;;0.60;;
44766;SDS011;30487;48.716;9.272;2023-08-06T14:43:36;0.70;;;0.32;;
44766;SDS011;30487;48.716;9.272;2023-08-06T14:46:02;0.90;;;0.50;;
44766;SDS011;30487;48.716;9.272;2023-08-06T14:48:28;0.65;;;0.43;;
44766;SDS011;30487;48.716;9.272;2023-08-06T14:50:55;1.48;;;0.40;;
44766;SDS011;30487;48.716;9.272;2023-08-06T14:53:21;1.42;;;0.60;;
44766;SDS011;30487;48.716;9.272;2023-08-06T14:55:47;1.38;;;0.50;;
44766;SDS011;30487;48.716;9.272;2023-08-06T14:58:13;2.33;;;0.60;;
44766;SDS011;30487;48.716;9.272;2023-08-06T15:00:38;1.08;;;0.60;;
44766;SDS011;30487;48.716;9.272;2023-08-06T15:03:04;1.08;;;0.65;;
44766;SDS011;30487;48.716;9.272;2023-08-06T15:05:29;0.85;;;0.55;;
44766;SDS011;30487;48.716;9.272;2023-08-06T15:07:55;2.05;;;0.60;;